Time;durP1;ratioP1;P1;durP2;ratioP2;P2;SDS_P1;SDS_P2;PMS_P1;PMS_P2;Temp;Humidity;BMP_temperature;BMP_pressure;BME280_temperature;BME280_humidity;BME280_pressure;Samples;Min_cycle;Max_cycle;Signal;HPM_P1;HPM_P2
2022/06/14 00:00:53;;;;;;;6.20;1.85;;;10.10;99.90;;;;;;5033535;28;20106;-77
2022/06/14 00:03:20;;;;;;;8.88;2.10;;;10.10;99.90;;;;;;5033493;28;20546;-78
2022/06/14 00:05:46;;;;;;;8.27;2.25;;;10.00;99.90;;;;;;5015665;28;20048;-78
2022/06/14 00:08:13;;;;;;;7.40;2.03;;;10.00;99.90;;;;;;5032040;28;20045;-78
2022/06/14 00:10:39;;;;;;;4.32;1.83;;;10.00;99.90;;;;;;5031877;28;20331;-78
2022/06/14 00:13:05;;;;;;;5.05;1.98;;;9.90;99.90;;;;;;5032091;28;20447;-78
2022/06/14 00:15:31;;;;;;;3.38;2.20;;;10.00;99.90;;;;;;5033525;28;20034;-79
2022/06/14 00:17:57;;;;;;;10.65;2.75;;;10.00;99.90;;;;;;5033350;28;20060;-78
2022/06/14 00:20:23;;;;;;;6.55;2.45;;;9.90;99.90;;;;;;5033094;28;20427;-78
2022/06/14 00:22:48;;;;;;;7.20;2.00;;;9.90;99.90;;;;;;5033241;28;20068;-78
2022/06/14 00:25:34;;;;;;;7.72;2.35;;;9.90;99.90;;;;;;5032681;28;20037;-78
2022/06/14 00:28:01;;;;;;;6.40;2.13;;;9.90;99.90;;;;;;5033081;28;20042;-78
2022/06/14 00:30:28;;;;;;;7.20;2.47;;;9.90;99.90;;;;;;5032828;28;20115;-78
2022/06/14 00:32:54;;;;;;;3.65;2.15;;;9.80;99.90;;;;;;5033132;28;20057;-77
2022/06/14 00:35:20;;;;;;;8.13;2.30;;;9.80;99.90;;;;;;5031992;28;20045;-78
2022/06/14 00:37:46;;;;;;;5.63;2.15;;;9.80;99.90;;;;;;5032765;28;20533;-78
2022/06/14 00:40:15;;;;;;;7.53;2.38;;;9.70;99.90;;;;;;5032867;28;20033;-78
2022/06/14 00:42:41;;;;;;;5.57;2.20;;;9.60;99.90;;;;;;5032976;28;20076;-77
2022/06/14 00:45:12;;;;;;;6.30;2.20;;;9.70;99.90;;;;;;5032768;28;20088;-77
2022/06/14 00:48:02;;;;;;;7.33;2.03;;;9.60;99.90;;;;;;5015054;28;20572;-77
2022/06/14 00:50:36;;;;;;;9.48;2.67;;;9.60;99.90;;;;;;5031501;28;20107;-78
2022/06/14 00:53:09;;;;;;;11.57;2.97;;;9.60;99.90;;;;;;5015025;28;20046;-77
2022/06/14 00:55:40;;;;;;;6.45;2.60;;;9.60;99.90;;;;;;5032684;28;20566;-77
2022/06/14 00:58:14;;;;;;;15.20;2.37;;;9.60;99.90;;;;;;5033110;28;20095;-78
2022/06/14 01:01:08;;;;;;;8.02;2.83;;;9.60;99.90;;;;;;5032172;28;20124;-77
2022/06/14 01:03:40;;;;;;;4.38;2.10;;;9.50;99.90;;;;;;5029795;28;20424;-77
2022/06/14 01:06:17;;;;;;;;;;;9.60;99.90;;;;;;5033231;28;20505;-78
2022/06/14 01:09:00;;;;;;;5.80;2.13;;;9.50;99.90;;;;;;5032305;28;20043;-78
2022/06/14 01:11:40;;;;;;;8.63;2.40;;;9.40;99.90;;;;;;5030723;28;20558;-77
2022/06/14 01:14:08;;;;;;;7.20;2.58;;;9.40;99.90;;;;;;5032253;28;20495;-77
2022/06/14 01:16:34;;;;;;;7.30;2.67;;;9.50;99.90;;;;;;5031244;28;20075;-77
2022/06/14 01:19:00;;;;;;;11.65;2.58;;;9.50;99.90;;;;;;5030987;28;20528;-77
2022/06/14 01:21:28;;;;;;;6.50;2.13;;;9.50;99.90;;;;;;5031826;28;20116;-77
2022/06/14 01:23:54;;;;;;;8.25;2.65;;;9.50;99.90;;;;;;5032141;28;20041;-77
2022/06/14 01:26:23;;;;;;;6.97;2.25;;;9.50;99.90;;;;;;5032092;28;20113;-77
2022/06/14 01:28:54;;;;;;;7.50;3.03;;;9.50;99.90;;;;;;5034707;28;20041;-77
2022/06/14 01:31:22;;;;;;;11.35;3.88;;;9.40;99.90;;;;;;5033444;28;20084;-78
2022/06/14 01:33:51;;;;;;;10.02;2.60;;;9.40;99.90;;;;;;5033205;28;20077;-78
2022/06/14 01:36:27;;;;;;;5.38;2.58;;;9.30;99.90;;;;;;5033429;28;20116;-78
2022/06/14 01:38:54;;;;;;;8.88;2.95;;;9.40;99.90;;;;;;5034683;28;20045;-77
2022/06/14 01:41:32;;;;;;;8.02;2.60;;;9.40;99.90;;;;;;5016364;28;20112;-77
2022/06/14 01:44:27;;;;;;;5.63;2.58;;;9.40;99.90;;;;;;5033696;28;20049;-78
2022/06/14 01:47:20;;;;;;;9.48;3.08;;;9.40;99.90;;;;;;5034292;28;20045;-78
2022/06/14 01:52:59;;;;;;;10.93;3.30;;;9.30;99.90;;;;;;5032702;28;20425;-80
2022/06/14 01:55:37;;;;;;;12.68;4.47;;;9.30;99.90;;;;;;5032064;28;20052;-80
2022/06/14 01:58:06;;;;;;;11.07;3.85;;;9.30;99.90;;;;;;5033046;28;20045;-80
2022/06/14 02:00:55;;;;;;;8.52;3.33;;;9.30;99.90;;;;;;5015299;28;20099;-80
2022/06/14 02:06:35;;;;;;;10.48;4.80;;;9.30;99.90;;;;;;5032197;28;20076;-79
2022/06/14 02:09:05;;;;;;;12.68;4.40;;;9.30;99.90;;;;;;5032195;28;20088;-80
2022/06/14 02:11:33;;;;;;;8.13;2.95;;;9.30;99.90;;;;;;5031398;28;20042;-80
2022/06/14 02:14:33;;;;;;;5.88;3.17;;;9.30;99.90;;;;;;5032519;28;20045;-79
2022/06/14 02:17:04;;;;;;;6.32;2.95;;;9.30;99.90;;;;;;5041779;28;20204;-79
2022/06/14 02:19:35;;;;;;;6.45;3.42;;;9.20;99.90;;;;;;5032478;28;20037;-80
2022/06/14 02:22:13;;;;;;;8.70;3.63;;;9.30;99.90;;;;;;5033018;28;20053;-79
2022/06/14 02:24:41;;;;;;;9.52;3.45;;;9.30;99.90;;;;;;5031520;28;20041;-78
2022/06/14 02:27:27;;;;;;;9.85;3.88;;;9.30;99.90;;;;;;5032753;28;20501;-79
2022/06/14 02:29:57;;;;;;;6.47;3.08;;;9.40;99.90;;;;;;5031267;28;20041;-80
2022/06/14 02:32:41;;;;;;;7.30;3.80;;;9.40;99.90;;;;;;5032088;28;20113;-78
2022/06/14 02:35:20;;;;;;;10.82;4.13;;;9.30;99.90;;;;;;5031126;28;20045;-77
2022/06/14 02:38:13;;;;;;;7.57;3.42;;;9.30;99.90;;;;;;5013313;28;20049;-77
2022/06/14 02:40:46;;;;;;;11.70;3.95;;;9.30;99.90;;;;;;5029301;28;20033;-76
2022/06/14 02:43:27;;;;;;;8.95;4.18;;;9.30;99.90;;;;;;5031645;28;20404;-78
2022/06/14 02:46:28;;;;;;;7.10;3.22;;;9.30;99.90;;;;;;5039080;28;20128;-80
2022/06/14 02:49:10;;;;;;;7.75;3.83;;;9.30;99.90;;;;;;5046361;28;20056;-77
2022/06/14 02:51:51;;;;;;;8.07;3.72;;;9.30;99.90;;;;;;5029514;28;20045;-78
2022/06/14 02:54:27;;;;;;;7.90;3.72;;;9.30;99.90;;;;;;5029223;28;20041;-77
2022/06/14 02:57:11;;;;;;;13.48;4.32;;;9.20;99.90;;;;;;5012838;28;20512;-77
2022/06/14 02:59:44;;;;;;;6.70;3.90;;;9.30;99.90;;;;;;5012709;28;20052;-77
2022/06/14 03:02:40;;;;;;;11.98;4.13;;;9.20;99.90;;;;;;5030663;28;20073;-77
2022/06/14 03:05:16;;;;;;;9.05;3.67;;;9.30;99.90;;;;;;4991938;28;20064;-77
2022/06/14 03:07:52;;;;;;;10.48;4.45;;;9.30;99.90;;;;;;5012503;28;20041;-77
2022/06/14 03:10:18;;;;;;;7.10;4.30;;;9.30;99.90;;;;;;5029203;28;20087;-77
2022/06/14 03:12:58;;;;;;;7.55;4.03;;;9.30;99.90;;;;;;5012915;28;20044;-77
2022/06/14 03:15:40;;;;;;;5.90;3.60;;;9.30;99.90;;;;;;5030522;28;20049;-78
2022/06/14 03:18:15;;;;;;;7.80;3.65;;;9.20;99.90;;;;;;5029198;28;20072;-77
2022/06/14 03:21:12;;;;;;;10.57;4.00;;;9.20;99.90;;;;;;5028858;28;20455;-78
2022/06/14 03:23:53;;;;;;;12.60;3.88;;;9.30;99.90;;;;;;5029201;28;20053;-77
2022/06/14 03:26:42;;;;;;;7.57;3.55;;;9.30;99.90;;;;;;5029043;28;20092;-77
2022/06/14 03:29:17;;;;;;;6.78;3.97;;;9.40;99.90;;;;;;5030732;28;20056;-77
2022/06/14 03:31:46;;;;;;;6.18;3.67;;;9.30;99.90;;;;;;5031984;28;20048;-77
2022/06/14 03:34:40;;;;;;;7.47;3.63;;;9.40;99.90;;;;;;5034093;28;20033;-77
2022/06/14 03:37:08;;;;;;;10.32;4.15;;;9.40;99.90;;;;;;5033057;28;20448;-77
2022/06/14 03:39:39;;;;;;;9.60;4.03;;;9.40;99.90;;;;;;5033890;28;20055;-78
2022/06/14 03:42:08;;;;;;;5.88;3.28;;;9.60;99.90;;;;;;5032965;28;20064;-77
2022/06/14 03:44:34;;;;;;;7.13;3.30;;;9.50;99.90;;;;;;5033840;28;20042;-77
2022/06/14 03:47:09;;;;;;;5.80;3.15;;;9.50;99.90;;;;;;5032945;28;20049;-77
2022/06/14 03:49:40;;;;;;;6.43;3.50;;;9.50;99.90;;;;;;5032165;28;20053;-77
2022/06/14 03:52:26;;;;;;;14.20;3.60;;;9.60;99.90;;;;;;5016588;28;20457;-77
2022/06/14 03:55:04;;;;;;;6.00;3.47;;;9.60;99.90;;;;;;5032671;28;20045;-77
2022/06/14 03:57:39;;;;;;;8.55;3.90;;;9.70;99.90;;;;;;5033687;28;20045;-77
2022/06/14 04:00:27;;;;;;;6.72;3.10;;;9.70;99.90;;;;;;5032455;28;20045;-77
2022/06/14 04:03:14;;;;;;;11.27;3.50;;;9.70;99.90;;;;;;5032732;28;20408;-78
2022/06/14 04:05:47;;;;;;;6.47;3.58;;;9.80;99.90;;;;;;5033728;28;20038;-77
2022/06/14 04:08:40;;;;;;;8.95;3.22;;;9.80;99.90;;;;;;5032471;28;20042;-77
2022/06/14 04:11:20;;;;;;;8.32;3.30;;;9.90;99.90;;;;;;5033663;28;20045;-77
2022/06/14 04:13:55;;;;;;;9.30;3.70;;;9.90;99.90;;;;;;5033279;28;20473;-77
2022/06/14 04:16:51;;;;;;;7.18;3.90;;;10.00;99.90;;;;;;5032445;28;20042;-77
2022/06/14 04:19:48;;;;;;;7.63;3.67;;;10.10;99.90;;;;;;5033809;28;20144;-77
2022/06/14 04:22:26;;;;;;;8.85;3.45;;;10.10;99.90;;;;;;5032551;28;20045;-79
2022/06/14 04:25:06;;;;;;;8.48;3.58;;;10.20;99.90;;;;;;5016975;28;20413;-78
2022/06/14 04:27:45;;;;;;;7.18;3.50;;;10.20;99.90;;;;;;5035505;28;20033;-79
2022/06/14 04:30:22;;;;;;;6.78;3.67;;;10.20;99.90;;;;;;5034285;28;20056;-80
2022/06/14 04:33:03;;;;;;;9.93;3.50;;;10.20;99.90;;;;;;5036130;28;20044;-79
2022/06/14 04:35:43;;;;;;;9.50;4.57;;;10.30;99.90;;;;;;5034569;28;20347;-79
2022/06/14 04:38:16;;;;;;;9.75;3.55;;;10.30;99.90;;;;;;5018963;28;20064;-79
2022/06/14 04:41:22;;;;;;;9.68;4.82;;;10.30;99.90;;;;;;5033455;28;20046;-79
2022/06/14 04:43:54;;;;;;;22.73;7.25;;;10.50;99.90;;;;;;5025548;28;20568;-80
2022/06/14 04:46:34;;;;;;;11.38;6.18;;;10.70;99.90;;;;;;5031540;28;20540;-80
2022/06/14 04:49:18;;;;;;;9.32;4.28;;;10.60;99.90;;;;;;5034014;28;20045;-80
2022/06/14 04:51:50;;;;;;;15.52;5.15;;;10.80;99.90;;;;;;5018052;28;20456;-80
2022/06/14 04:54:47;;;;;;;8.93;3.75;;;11.00;99.90;;;;;;5016830;28;20044;-80
2022/06/14 04:57:27;;;;;;;10.05;4.22;;;11.20;99.90;;;;;;5025905;28;20057;-80
2022/06/14 04:59:59;;;;;;;8.45;3.55;;;11.30;99.90;;;;;;5031753;28;20495;-80
2022/06/14 05:02:36;;;;;;;7.07;3.40;;;11.50;99.90;;;;;;5031276;28;20092;-79
2022/06/14 05:05:23;;;;;;;7.30;3.58;;;11.70;99.90;;;;;;5033158;28;20140;-80
2022/06/14 05:08:04;;;;;;;12.38;3.67;;;12.00;99.90;;;;;;5014882;28;20484;-79
2022/06/14 05:10:36;;;;;;;21.52;9.38;;;12.30;99.90;;;;;;5031325;28;20404;-80
2022/06/14 05:13:06;;;;;;;11.88;4.82;;;12.80;99.90;;;;;;5014572;28;20067;-81
2022/06/14 05:15:45;;;;;;;7.43;3.00;;;13.20;99.90;;;;;;5030666;28;20045;-81
2022/06/14 05:18:20;;;;;;;6.35;2.35;;;13.60;99.90;;;;;;5015148;28;20045;-80
2022/06/14 05:20:54;;;;;;;9.10;2.67;;;14.00;99.90;;;;;;5016682;28;20048;-79
2022/06/14 05:23:38;;;;;;;8.63;2.67;;;14.50;99.90;;;;;;5034428;28;20056;-80
2022/06/14 05:26:28;;;;;;;12.98;2.80;;;14.90;99.90;;;;;;5030793;28;20129;-81
2022/06/14 05:29:16;;;;;;;10.80;3.92;;;15.10;99.90;;;;;;5031744;28;20132;-81
2022/06/14 05:32:19;;;;;;;17.90;8.02;;;15.50;99.90;;;;;;5030078;28;20041;-81
2022/06/14 05:34:44;;;;;;;8.43;2.95;;;15.80;99.90;;;;;;5030360;28;20042;-79
2022/06/14 05:37:19;;;;;;;8.65;2.85;;;16.00;99.90;;;;;;5013747;28;20056;-79
2022/06/14 05:39:56;;;;;;;7.35;2.50;;;16.30;99.90;;;;;;5029777;28;20041;-79
2022/06/14 05:42:30;;;;;;;8.43;2.60;;;16.60;99.90;;;;;;5030527;28;20045;-78
2022/06/14 05:45:00;;;;;;;10.48;2.90;;;16.80;99.90;;;;;;5032533;28;20083;-79
2022/06/14 05:47:39;;;;;;;9.10;2.38;;;17.10;99.90;;;;;;5030916;28;20107;-79
2022/06/14 05:50:12;;;;;;;8.80;2.50;;;17.40;99.90;;;;;;5029976;28;20049;-79
2022/06/14 05:52:42;;;;;;;8.35;2.40;;;17.50;99.90;;;;;;5014388;28;20053;-79
2022/06/14 05:55:33;;;;;;;10.40;2.55;;;17.70;99.90;;;;;;5016730;28;20056;-78
2022/06/14 05:58:08;;;;;;;8.85;2.25;;;17.80;99.90;;;;;;5056811;28;20026;-78
2022/06/14 06:00:44;;;;;;;8.93;2.25;;;17.80;99.90;;;;;;5036517;28;20025;-79
2022/06/14 06:03:20;;;;;;;7.05;2.10;;;17.80;99.90;;;;;;5013673;28;20099;-81
2022/06/14 06:05:51;;;;;;;10.65;2.28;;;17.80;99.90;;;;;;5029854;28;20052;-82
2022/06/14 06:08:26;;;;;;;9.50;2.95;;;17.80;99.90;;;;;;5029568;28;20041;-81
2022/06/14 06:10:58;;;;;;;7.97;2.50;;;17.90;99.90;;;;;;5030962;28;20045;-81
2022/06/14 06:13:34;;;;;;;8.70;2.33;;;18.10;99.90;;;;;;5031338;28;20048;-81
2022/06/14 06:16:26;;;;;;;5.55;2.00;;;18.50;99.90;;;;;;5029883;28;20116;-81
2022/06/14 06:19:10;;;;;;;;;;;18.80;99.90;;;;;;5022785;28;20052;-82
2022/06/14 06:22:15;;;;;;;6.00;2.10;;;18.90;99.90;;;;;;5029566;28;19963;-82
2022/06/14 06:24:54;;;;;;;6.97;2.15;;;19.30;99.90;;;;;;5008675;28;20125;-81
2022/06/14 06:27:29;;;;;;;8.65;2.42;;;19.50;99.90;;;;;;5025852;28;20058;-80
2022/06/14 06:30:19;;;;;;;14.38;3.22;;;19.80;99.90;;;;;;5030555;28;20038;-81
2022/06/14 06:32:45;;;;;;;9.88;2.45;;;19.90;99.90;;;;;;5029661;28;20108;-82
2022/06/14 06:35:12;;;;;;;7.95;2.75;;;20.00;99.90;;;;;;5029265;28;20163;-82
2022/06/14 06:37:50;;;;;;;5.78;1.90;;;20.20;99.90;;;;;;5029418;28;20049;-81
2022/06/14 06:40:22;;;;;;;9.70;2.38;;;20.10;99.90;;;;;;5028979;28;20049;-80
2022/06/14 06:43:05;;;;;;;6.90;2.10;;;20.20;99.90;;;;;;5030646;28;20089;-82
2022/06/14 06:45:38;;;;;;;4.70;1.65;;;20.10;99.90;;;;;;5029382;28;20049;-78
2022/06/14 06:48:11;;;;;;;6.93;1.80;;;20.10;99.90;;;;;;5030454;28;20393;-79
2022/06/14 06:50:41;;;;;;;5.10;1.60;;;20.20;99.90;;;;;;5030418;28;20515;-79
2022/06/14 06:53:10;;;;;;;6.15;1.80;;;20.10;99.90;;;;;;5030806;28;20061;-79
2022/06/14 06:55:51;;;;;;;7.60;2.50;;;20.30;99.90;;;;;;5029328;28;20416;-81
2022/06/14 06:58:26;;;;;;;8.90;2.35;;;20.60;99.90;;;;;;5030782;28;20037;-80
2022/06/14 07:00:58;;;;;;;10.32;2.72;;;20.90;99.90;;;;;;5012918;28;20056;-80
2022/06/14 07:03:29;;;;;;;9.35;2.20;;;21.20;99.90;;;;;;5031367;28;20038;-80
2022/06/14 07:05:58;;;;;;;3.85;1.38;;;21.30;99.90;;;;;;5032129;28;20235;-80
2022/06/14 07:08:34;;;;;;;4.68;1.70;;;21.40;99.90;;;;;;5017220;28;20045;-80
2022/06/14 07:11:01;;;;;;;7.10;1.73;;;21.50;99.90;;;;;;5033277;28;20512;-80
2022/06/14 07:13:53;;;;;;;7.20;1.77;;;21.20;99.90;;;;;;5032869;28;20407;-79
2022/06/14 07:16:30;;;;;;;8.30;2.05;;;20.90;99.90;;;;;;5014141;28;20057;-80
2022/06/14 07:19:02;;;;;;;6.63;1.30;;;20.90;99.90;;;;;;5033181;28;20049;-80
2022/06/14 07:21:31;;;;;;;;;;;21.10;99.90;;;;;;5034510;28;20369;-80
2022/06/14 07:24:04;;;;;;;4.53;1.35;;;21.20;99.90;;;;;;5032780;28;19917;-80
2022/06/14 07:26:49;;;;;;;4.95;1.55;;;21.40;99.90;;;;;;5033188;28;20120;-79
2022/06/14 07:29:24;;;;;;;4.90;1.60;;;21.70;99.90;;;;;;5034153;28;20048;-80
2022/06/14 07:32:17;;;;;;;5.05;1.70;;;21.70;99.90;;;;;;5033975;28;20554;-80
2022/06/14 07:34:44;;;;;;;6.22;1.75;;;21.80;98.80;;;;;;5032869;28;20481;-80
2022/06/14 07:37:19;;;;;;;6.65;1.60;;;21.80;99.90;;;;;;5034317;28;20103;-80
2022/06/14 07:39:58;;;;;;;5.95;1.60;;;21.90;99.90;;;;;;5032767;28;20049;-80
2022/06/14 07:42:32;;;;;;;3.67;1.48;;;22.10;97.80;;;;;;5033920;28;20037;-79
2022/06/14 07:45:13;;;;;;;5.90;1.75;;;22.20;99.80;;;;;;5016287;28;20069;-80
2022/06/14 07:47:39;;;;;;;;;;;22.10;96.90;;;;;;5033314;28;20451;-79
2022/06/14 07:50:10;;;;;;;7.85;2.10;;;21.80;91.40;;;;;;5015536;28;19921;-80
2022/06/14 07:52:59;;;;;;;;;;;21.70;97.90;;;;;;5016579;28;20033;-80
2022/06/14 07:55:27;;;;;;;4.15;1.58;;;21.40;97.20;;;;;;5032807;28;19944;-80
2022/06/14 07:58:00;;;;;;;9.95;1.58;;;21.10;99.90;;;;;;5033861;28;20049;-79
2022/06/14 08:03:22;;;;;;;9.05;1.45;;;20.70;98.70;;;;;;5033747;28;20081;-80
2022/06/14 08:05:51;;;;;;;4.30;1.40;;;21.20;99.90;;;;;;5015612;28;20088;-79
2022/06/14 08:08:26;;;;;;;7.60;1.17;;;21.60;98.50;;;;;;5034246;28;20046;-79
2022/06/14 08:10:57;;;;;;;4.47;1.20;;;21.60;94.20;;;;;;5032826;28;20509;-79
2022/06/14 08:13:28;;;;;;;4.95;1.25;;;21.00;97.80;;;;;;5032684;28;20046;-79
2022/06/14 08:15:58;;;;;;;4.20;1.20;;;20.70;99.10;;;;;;5033717;28;20056;-79
2022/06/14 08:18:36;;;;;;;4.50;1.15;;;20.40;99.00;;;;;;5032751;28;20399;-79
2022/06/14 08:21:11;;;;;;;5.05;1.35;;;20.10;99.40;;;;;;5031933;28;20512;-79
2022/06/14 08:23:51;;;;;;;4.03;1.10;;;19.80;99.90;;;;;;5015443;28;20103;-78
2022/06/14 08:26:30;;;;;;;4.65;1.40;;;19.60;99.90;;;;;;5031879;28;20045;-79
2022/06/14 08:29:13;;;;;;;6.70;1.45;;;19.90;99.90;;;;;;5031963;28;20064;-79
2022/06/14 08:31:59;;;;;;;5.22;1.50;;;20.50;99.90;;;;;;5031784;28;20038;-79
2022/06/14 08:34:33;;;;;;;5.38;1.20;;;20.70;99.90;;;;;;5032995;28;20296;-79
2022/06/14 08:37:05;;;;;;;4.93;1.02;;;20.40;99.90;;;;;;5032951;28;20471;-79
2022/06/14 08:39:36;;;;;;;;;;;20.00;99.60;;;;;;5015581;28;20041;-79
2022/06/14 08:42:24;;;;;;;3.97;1.17;;;19.70;98.40;;;;;;5032860;28;19923;-78
2022/06/14 08:45:01;;;;;;;4.53;1.88;;;19.80;99.90;;;;;;5029777;28;20060;-79
2022/06/14 08:47:41;;;;;;;3.85;1.60;;;20.10;99.90;;;;;;5033485;28;20129;-79
2022/06/14 08:50:13;;;;;;;6.40;1.50;;;20.10;99.90;;;;;;5031169;28;20076;-79
2022/06/14 08:52:47;;;;;;;6.68;1.45;;;20.30;94.80;;;;;;5032996;28;20504;-79
2022/06/14 08:55:35;;;;;;;8.02;1.27;;;20.70;95.30;;;;;;5031459;28;20046;-78
2022/06/14 08:58:12;;;;;;;6.35;1.10;;;20.80;97.30;;;;;;5033518;28;20124;-79
2022/06/14 09:00:56;;;;;;;3.63;1.55;;;20.60;98.50;;;;;;5031398;28;20071;-79
2022/06/14 09:03:39;;;;;;;6.18;1.50;;;20.30;99.00;;;;;;5032679;28;20045;-79
2022/06/14 09:06:42;;;;;;;3.17;1.20;;;20.20;99.80;;;;;;5032652;28;20052;-78
2022/06/14 09:09:54;;;;;;;4.38;1.10;;;19.90;99.60;;;;;;5032768;28;20045;-80
2022/06/14 09:12:41;;;;;;;5.05;1.10;;;19.60;99.80;;;;;;5032239;28;20103;-79
2022/06/14 09:15:31;;;;;;;7.32;1.40;;;19.30;99.90;;;;;;5032165;28;20475;-78
2022/06/14 09:18:33;;;;;;;4.55;1.27;;;19.20;99.90;;;;;;5030971;28;20119;-79
2022/06/14 09:21:17;;;;;;;3.65;1.27;;;19.70;99.90;;;;;;5031012;28;20400;-80
2022/06/14 09:23:55;;;;;;;4.13;1.20;;;20.40;99.90;;;;;;5014751;28;20473;-78
2022/06/14 09:26:29;;;;;;;4.57;1.20;;;21.00;99.90;;;;;;5030281;28;20050;-78
2022/06/14 09:29:21;;;;;;;4.13;1.05;;;21.50;97.70;;;;;;5037413;28;20037;-78
2022/06/14 09:32:05;;;;;;;4.20;1.15;;;22.00;96.40;;;;;;5044845;28;20049;-78
2022/06/14 09:35:01;;;;;;;2.85;1.00;;;22.40;96.30;;;;;;5030598;28;20386;-78
2022/06/14 09:38:15;;;;;;;3.25;1.23;;;22.80;90.10;;;;;;5031630;28;20523;-79
2022/06/14 09:40:47;;;;;;;4.03;1.27;;;22.70;92.90;;;;;;5014173;28;20489;-79
2022/06/14 09:43:27;;;;;;;;;;;22.20;94.90;;;;;;5032236;28;20041;-79
2022/06/14 09:46:12;;;;;;;3.30;1.10;;;21.60;90.90;;;;;;5030819;28;19921;-80
2022/06/14 09:49:22;;;;;;;5.53;1.52;;;21.20;94.50;;;;;;5030515;28;20060;-79
2022/06/14 09:51:57;;;;;;;6.03;1.25;;;20.90;94.80;;;;;;4976445;28;20041;-79
2022/06/14 09:54:42;;;;;;;3.95;1.20;;;20.90;96.00;;;;;;5026666;28;20060;-79
2022/06/14 09:57:19;;;;;;;6.47;1.23;;;20.70;96.70;;;;;;5031571;28;20085;-79
2022/06/14 10:00:16;;;;;;;4.70;1.20;;;20.80;96.10;;;;;;5029932;28;20073;-80
2022/06/14 10:03:05;;;;;;;5.20;1.00;;;21.20;94.50;;;;;;5031554;28;20124;-79
2022/06/14 10:05:46;;;;;;;5.80;1.17;;;21.60;96.10;;;;;;5027188;28;20045;-80
2022/06/14 10:08:17;;;;;;;2.67;1.10;;;22.00;93.10;;;;;;5030272;28;20496;-80
2022/06/14 10:11:10;;;;;;;4.85;1.33;;;22.30;92.40;;;;;;5031200;28;20046;-80
2022/06/14 10:14:14;;;;;;;3.75;0.82;;;22.70;90.60;;;;;;5030166;28;20049;-79
2022/06/14 10:16:58;;;;;;;4.20;0.95;;;22.80;79.80;;;;;;5030249;28;20048;-80
2022/06/14 10:19:42;;;;;;;1.85;0.88;;;22.70;86.00;;;;;;5032384;28;20034;-80
2022/06/14 10:22:11;;;;;;;4.20;1.20;;;22.60;88.50;;;;;;5031527;28;20045;-80
2022/06/14 10:25:10;;;;;;;3.33;1.10;;;22.60;89.90;;;;;;5031139;28;20443;-79
2022/06/14 10:31:10;;;;;;;1.98;1.10;;;22.40;84.30;;;;;;5030127;28;20107;-80
2022/06/14 10:33:45;;;;;;;4.45;1.42;;;22.10;85.30;;;;;;5029314;28;20057;-79
2022/06/14 10:36:29;;;;;;;5.10;1.17;;;21.80;86.60;;;;;;5029928;28;20132;-79
2022/06/14 10:39:24;;;;;;;4.22;1.00;;;21.70;91.40;;;;;;5031272;28;20091;-79
2022/06/14 10:42:00;;;;;;;2.55;1.00;;;21.70;90.60;;;;;;5023733;28;20428;-80
2022/06/14 10:44:37;;;;;;;3.38;1.13;;;21.70;90.20;;;;;;5029821;28;20057;-80
2022/06/14 10:47:24;;;;;;;2.72;0.90;;;21.80;90.10;;;;;;5030588;28;20509;-81
2022/06/14 10:49:59;;;;;;;2.55;0.90;;;22.10;91.90;;;;;;5030018;28;20045;-80
2022/06/14 10:52:37;;;;;;;6.60;1.13;;;22.50;90.10;;;;;;5030783;28;20045;-83
2022/06/14 10:55:11;;;;;;;3.85;1.35;;;22.70;85.40;;;;;;5013469;28;20052;-80
2022/06/14 10:57:55;;;;;;;3.00;1.10;;;23.00;87.00;;;;;;5031794;28;20539;-81
2022/06/14 11:00:40;;;;;;;5.00;1.10;;;23.60;72.80;;;;;;5033881;28;20045;-81
2022/06/14 11:03:20;;;;;;;5.20;0.95;;;23.80;76.20;;;;;;5030998;28;20551;-80
2022/06/14 11:06:27;;;;;;;6.90;1.10;;;24.10;75.50;;;;;;5031570;28;20048;-81
2022/06/14 11:09:10;;;;;;;3.72;1.60;;;24.30;71.20;;;;;;4993183;28;20505;-80
2022/06/14 11:11:42;;;;;;;3.45;1.00;;;24.30;70.00;;;;;;5029575;28;20069;-80
2022/06/14 11:14:29;;;;;;;4.63;1.05;;;24.10;67.70;;;;;;5015189;28;20068;-80
2022/06/14 11:17:20;;;;;;;3.28;0.95;;;23.60;61.40;;;;;;5013638;28;20404;-80
2022/06/14 11:20:20;;;;;;;3.40;0.98;;;23.20;62.30;;;;;;5013507;28;20493;-82
2022/06/14 11:22:50;;;;;;;2.08;0.80;;;22.90;63.60;;;;;;5029856;28;20073;-79
2022/06/14 11:25:26;;;;;;;6.07;1.10;;;22.60;68.80;;;;;;5031639;28;20195;-80
2022/06/14 11:27:51;;;;;;;2.08;0.60;;;22.70;65.00;;;;;;5030820;28;20096;-82
2022/06/14 11:30:35;;;;;;;5.10;1.27;;;22.90;70.20;;;;;;5013823;28;20443;-82
2022/06/14 11:33:26;;;;;;;4.07;1.15;;;23.00;63.20;;;;;;5014726;28;20099;-80
2022/06/14 11:36:39;;;;;;;5.18;0.80;;;23.10;68.00;;;;;;5014799;28;20050;-81
2022/06/14 11:39:29;;;;;;;2.97;0.90;;;23.20;72.80;;;;;;4994779;28;20146;-81
2022/06/14 11:41:57;;;;;;;3.33;1.05;;;23.30;68.80;;;;;;5013901;28;20041;-81
2022/06/14 11:44:49;;;;;;;2.40;0.73;;;23.40;67.50;;;;;;5030734;28;20120;-78
2022/06/14 11:47:29;;;;;;;1.40;0.88;;;23.10;67.30;;;;;;5012627;28;20438;-81
2022/06/14 11:50:08;;;;;;;2.67;0.63;;;23.10;73.70;;;;;;5012909;28;20048;-81
2022/06/14 11:52:51;;;;;;;2.95;1.00;;;23.10;77.70;;;;;;5014095;28;20369;-80
2022/06/14 11:55:41;;;;;;;3.22;0.75;;;23.10;75.10;;;;;;5032784;28;20044;-81
2022/06/14 11:58:53;;;;;;;4.30;0.98;;;23.00;74.10;;;;;;5034007;28;20046;-81
2022/06/14 12:01:35;;;;;;;1.52;0.80;;;22.90;75.70;;;;;;5010670;28;20115;-81
2022/06/14 12:04:46;;;;;;;3.50;1.23;;;22.70;83.80;;;;;;5032583;28;20151;-81
2022/06/14 12:07:28;;;;;;;2.90;0.88;;;22.40;74.80;;;;;;5032458;28;20054;-80
2022/06/14 12:10:32;;;;;;;2.42;1.17;;;22.10;78.30;;;;;;5033704;28;20439;-81
2022/06/14 12:13:29;;;;;;;2.60;1.20;;;21.80;75.90;;;;;;5033615;28;20042;-81
2022/06/14 12:16:20;;;;;;;2.95;1.10;;;21.60;77.50;;;;;;5033520;28;20053;-81
2022/06/14 12:18:59;;;;;;;1.85;1.08;;;21.60;78.90;;;;;;5032233;28;20056;-81
2022/06/14 12:21:31;;;;;;;3.30;0.85;;;21.80;81.70;;;;;;5033317;28;20455;-79
2022/06/14 12:24:03;;;;;;;3.13;1.33;;;22.10;80.90;;;;;;5031939;28;20045;-79
2022/06/14 12:27:01;;;;;;;2.13;1.15;;;22.50;76.20;;;;;;5033466;28;20087;-80
2022/06/14 12:29:37;;;;;;;3.42;1.08;;;23.10;75.90;;;;;;5032883;28;20067;-80
2022/06/14 12:32:27;;;;;;;2.97;0.95;;;23.60;74.90;;;;;;5033904;28;20033;-80
2022/06/14 12:34:59;;;;;;;2.53;1.10;;;23.90;67.50;;;;;;5032194;28;20439;-80
2022/06/14 12:37:34;;;;;;;7.25;1.33;;;23.70;62.80;;;;;;5033238;28;20045;-80
2022/06/14 12:40:15;;;;;;;1.27;0.98;;;23.60;63.10;;;;;;5032879;28;20139;-80
2022/06/14 12:42:52;;;;;;;1.80;0.98;;;23.40;72.70;;;;;;5031797;28;20049;-79
2022/06/14 12:45:23;;;;;;;3.67;0.98;;;23.30;78.50;;;;;;5033123;28;20042;-79
2022/06/14 12:48:13;;;;;;;6.78;0.90;;;23.40;65.60;;;;;;5033038;28;20060;-80
2022/06/14 12:50:43;;;;;;;1.38;0.80;;;23.60;65.70;;;;;;5033759;28;20054;-80
2022/06/14 12:53:28;;;;;;;2.33;0.90;;;23.80;64.80;;;;;;5035190;28;20481;-81
2022/06/14 12:55:59;;;;;;;2.90;0.90;;;24.00;60.00;;;;;;5034418;28;20056;-80
2022/06/14 12:58:34;;;;;;;3.87;0.90;;;24.20;58.90;;;;;;5032229;28;20053;-80
2022/06/14 13:01:06;;;;;;;2.92;1.00;;;24.40;57.00;;;;;;5034673;28;20045;-79
2022/06/14 13:04:07;;;;;;;1.38;0.80;;;24.50;58.60;;;;;;5014791;28;20056;-80
2022/06/14 13:06:42;;;;;;;4.43;0.97;;;24.70;58.40;;;;;;5010608;28;20057;-80
2022/06/14 13:09:19;;;;;;;4.28;1.15;;;24.60;58.60;;;;;;5033545;28;20276;-79
2022/06/14 13:11:57;;;;;;;3.30;1.00;;;24.40;58.80;;;;;;5014806;28;20041;-80
2022/06/14 13:14:31;;;;;;;5.20;1.30;;;24.30;59.80;;;;;;5027872;28;20041;-80
2022/06/14 13:17:29;;;;;;;3.75;0.98;;;24.30;59.80;;;;;;5056731;28;20041;-80
2022/06/14 13:20:03;;;;;;;1.77;1.05;;;24.20;57.80;;;;;;5036450;28;20057;-80
2022/06/14 13:22:49;;;;;;;2.60;0.95;;;24.30;59.20;;;;;;5031276;28;20099;-79
2022/06/14 13:25:21;;;;;;;3.55;0.82;;;24.30;60.30;;;;;;5014723;28;20089;-79
2022/06/14 13:28:10;;;;;;;1.40;0.82;;;24.30;59.80;;;;;;5031109;28;20072;-79
2022/06/14 13:31:14;;;;;;;1.73;0.70;;;24.40;57.80;;;;;;5030670;28;20132;-79
2022/06/14 13:33:45;;;;;;;2.53;1.10;;;24.20;57.10;;;;;;4979863;28;20807;-78
2022/06/14 13:36:38;;;;;;;1.48;0.68;;;23.70;59.10;;;;;;5014563;28;20041;-80
2022/06/14 13:39:25;;;;;;;2.78;0.90;;;23.30;63.10;;;;;;5030692;28;20045;-79
2022/06/14 13:42:01;;;;;;;7.05;0.93;;;23.00;66.10;;;;;;5030462;28;20048;-79
2022/06/14 13:44:43;;;;;;;2.70;0.93;;;22.90;65.20;;;;;;5014024;28;20041;-79
2022/06/14 13:47:18;;;;;;;2.67;1.00;;;22.80;65.60;;;;;;5030524;28;20045;-79
2022/06/14 13:50:00;;;;;;;5.35;1.30;;;22.60;66.60;;;;;;5030035;28;20042;-79
2022/06/14 13:52:29;;;;;;;;;;;22.50;68.00;;;;;;5031139;28;20089;-80
2022/06/14 13:55:31;;;;;;;2.38;0.85;;;22.40;62.80;;;;;;5013813;28;19917;-78
2022/06/14 13:58:03;;;;;;;3.38;1.02;;;22.20;62.70;;;;;;5002793;28;20489;-79
2022/06/14 14:01:03;;;;;;;2.53;0.88;;;22.10;65.20;;;;;;5013743;28;20040;-79
2022/06/14 14:03:56;;;;;;;2.72;1.08;;;21.90;64.80;;;;;;5013641;28;20041;-79
2022/06/14 14:06:48;;;;;;;3.63;0.95;;;21.90;65.80;;;;;;5030458;28;20575;-79